createdAt,value
2022-12-13T00:01:41.720Z,35.67
2022-12-13T00:04:08.581Z,36.33
2022-12-13T00:06:33.110Z,42.87
2022-12-13T00:08:58.662Z,36.70
2022-12-13T00:11:22.453Z,38.43
2022-12-13T00:13:47.044Z,36.73
2022-12-13T00:16:15.063Z,43.47
2022-12-13T00:18:39.013Z,40.63
2022-12-13T00:21:07.190Z,42.77
2022-12-13T00:23:30.781Z,37.90
2022-12-13T00:25:55.829Z,42.77
2022-12-13T00:28:19.451Z,43.03
2022-12-13T00:30:43.358Z,43.27
2022-12-13T00:33:07.692Z,42.37
2022-12-13T00:35:31.351Z,40.03
2022-12-13T00:37:54.973Z,39.30
2022-12-13T00:40:18.760Z,43.37
2022-12-13T00:42:43.761Z,39.10
2022-12-13T00:45:09.606Z,41.87
2022-12-13T00:47:33.217Z,36.37
2022-12-13T00:49:56.934Z,36.00
2022-12-13T00:52:20.520Z,37.47
2022-12-13T00:54:44.169Z,37.27
2022-12-13T00:57:07.756Z,40.10
2022-12-13T00:59:32.867Z,39.43
2022-12-13T01:01:56.453Z,35.50
2022-12-13T01:04:20.169Z,38.10
2022-12-13T01:06:46.187Z,38.20
2022-12-13T01:09:18.994Z,33.57
2022-12-13T01:11:42.641Z,35.37
2022-12-13T01:14:06.305Z,34.27
2022-12-13T01:16:31.477Z,38.97
2022-12-13T01:18:56.038Z,30.93
2022-12-13T01:21:22.149Z,35.30
2022-12-13T01:23:46.877Z,37.03
2022-12-13T01:26:13.654Z,33.33
2022-12-13T01:28:37.512Z,34.60
2022-12-13T01:31:04.411Z,34.43
2022-12-13T01:33:30.972Z,32.10
2022-12-13T01:35:55.192Z,37.50
2022-12-13T01:38:19.266Z,32.73
2022-12-13T01:40:46.543Z,33.90
2022-12-13T01:43:14.423Z,38.60
2022-12-13T01:45:38.699Z,36.37
2022-12-13T01:48:06.665Z,35.07
2022-12-13T01:50:37.551Z,34.37
2022-12-13T01:53:02.055Z,38.60
2022-12-13T01:55:28.831Z,36.23
2022-12-13T01:57:55.122Z,36.07
2022-12-13T02:00:19.198Z,35.93
2022-12-13T02:02:43.259Z,35.17
2022-12-13T02:05:12.791Z,31.80
2022-12-13T02:07:40.283Z,35.50
2022-12-13T02:10:08.803Z,34.30
2022-12-13T02:12:36.259Z,32.13
2022-12-13T02:15:01.282Z,33.83
2022-12-13T02:17:45.323Z,32.80
2022-12-13T02:21:11.572Z,31.37
2022-12-13T02:24:19.917Z,35.67
2022-12-13T02:27:03.157Z,31.97
2022-12-13T02:30:17.223Z,30.97
2022-12-13T02:32:57.705Z,36.70
2022-12-13T02:35:28.465Z,31.23
2022-12-13T02:38:01.864Z,33.33
2022-12-13T02:40:29.459Z,34.97
2022-12-13T02:43:00.839Z,34.53
2022-12-13T02:45:31.455Z,34.30
2022-12-13T02:47:59.327Z,32.87
2022-12-13T02:50:24.780Z,34.13
2022-12-13T02:52:49.827Z,33.03
2022-12-13T02:55:17.370Z,26.70
2022-12-13T02:57:44.828Z,34.37
2022-12-13T03:00:12.485Z,37.87
2022-12-13T03:02:50.149Z,36.90
2022-12-13T03:05:57.513Z,36.10
2022-12-13T03:08:25.770Z,35.63
2022-12-13T03:11:00.139Z,34.97
2022-12-13T03:13:38.400Z,35.53
2022-12-13T03:16:14.940Z,40.73
2022-12-13T03:18:47.800Z,39.00
2022-12-13T03:21:15.600Z,35.70
2022-12-13T03:23:39.616Z,35.20
2022-12-13T03:26:07.791Z,37.87
2022-12-13T03:28:31.899Z,45.43
2022-12-13T03:30:55.558Z,42.03
2022-12-13T03:33:19.230Z,35.87
2022-12-13T03:35:45.792Z,40.47
2022-12-13T03:38:12.036Z,39.47
2022-12-13T03:40:36.669Z,44.27
2022-12-13T03:43:00.644Z,37.07
2022-12-13T03:45:24.272Z,39.23
2022-12-13T03:47:47.983Z,40.77
2022-12-13T03:50:26.695Z,40.00
2022-12-13T03:52:52.059Z,39.07
2022-12-13T03:55:17.324Z,45.50
2022-12-13T03:57:41.127Z,41.70
2022-12-13T04:00:07.588Z,44.53
2022-12-13T04:02:35.821Z,39.10
2022-12-13T04:05:00.767Z,41.17
2022-12-13T04:07:24.690Z,43.03
2022-12-13T04:09:48.308Z,42.03
2022-12-13T04:12:30.856Z,43.17
2022-12-13T04:14:54.508Z,38.53
2022-12-13T04:17:18.069Z,40.47
2022-12-13T04:19:41.741Z,37.70
2022-12-13T04:22:05.469Z,42.67
2022-12-13T04:24:31.197Z,42.03
2022-12-13T04:26:55.865Z,41.90
2022-12-13T04:29:20.979Z,42.53
2022-12-13T04:31:44.839Z,39.10
2022-12-13T04:34:08.602Z,39.53
2022-12-13T04:36:32.958Z,42.27
2022-12-13T04:38:56.640Z,40.17
2022-12-13T04:41:24.389Z,40.77
2022-12-13T04:43:53.544Z,38.13
2022-12-13T04:46:18.528Z,39.07
2022-12-13T04:48:42.193Z,39.23
2022-12-13T04:51:06.045Z,42.43
2022-12-13T04:53:30.049Z,37.67
2022-12-13T04:55:53.881Z,40.03
2022-12-13T04:58:22.863Z,35.90
2022-12-13T05:00:47.526Z,39.43
2022-12-13T05:03:13.074Z,39.87
2022-12-13T05:05:39.874Z,41.63
2022-12-13T05:08:03.626Z,35.30
2022-12-13T05:10:34.245Z,34.30
2022-12-13T05:13:01.539Z,34.13
2022-12-13T05:15:25.215Z,37.53
2022-12-13T05:17:48.855Z,38.37
2022-12-13T05:20:14.143Z,32.20
2022-12-13T05:22:38.119Z,35.90
2022-12-13T05:25:01.835Z,30.47
2022-12-13T05:27:26.945Z,35.27
2022-12-13T05:29:52.073Z,36.50
2022-12-13T05:32:18.705Z,29.23
2022-12-13T05:34:42.491Z,36.10
2022-12-13T05:37:07.729Z,33.70
2022-12-13T05:39:31.376Z,31.80
2022-12-13T05:41:55.942Z,36.47
2022-12-13T05:44:25.870Z,33.43
2022-12-13T05:46:49.479Z,33.90
2022-12-13T05:49:13.659Z,30.60
2022-12-13T05:51:37.358Z,32.70
2022-12-13T05:54:02.559Z,35.80
2022-12-13T05:56:26.285Z,33.73
2022-12-13T05:58:53.443Z,35.60
2022-12-13T06:01:18.760Z,32.40
2022-12-13T06:03:43.266Z,33.27
2022-12-13T06:06:09.280Z,36.80
2022-12-13T06:08:33.632Z,37.10
2022-12-13T06:11:10.760Z,35.97
2022-12-13T06:13:35.893Z,34.63
2022-12-13T06:16:08.456Z,34.13
2022-12-13T06:18:47.470Z,35.77
2022-12-13T06:21:14.660Z,38.87
2022-12-13T06:23:38.508Z,38.03
2022-12-13T06:26:07.280Z,34.10
2022-12-13T06:28:30.935Z,34.47
2022-12-13T06:30:55.610Z,38.67
2022-12-13T06:33:23.453Z,37.20
2022-12-13T06:35:47.477Z,33.30
2022-12-13T06:38:12.039Z,36.97
2022-12-13T06:40:35.911Z,39.23
2022-12-13T06:43:01.017Z,38.40
2022-12-13T06:45:25.456Z,38.87
2022-12-13T06:47:49.143Z,38.63
2022-12-13T06:50:12.749Z,39.33
2022-12-13T06:52:36.640Z,38.33
2022-12-13T06:55:00.277Z,42.00
2022-12-13T06:57:24.001Z,41.10
2022-12-13T06:59:49.051Z,42.47
2022-12-13T07:02:24.817Z,39.57
2022-12-13T07:04:49.625Z,43.23
2022-12-13T07:07:13.291Z,43.33
2022-12-13T07:09:37.081Z,44.83
2022-12-13T07:12:01.616Z,45.03
2022-12-13T07:14:28.927Z,43.50
2022-12-13T07:16:59.608Z,43.87
2022-12-13T07:19:26.880Z,45.53
2022-12-13T07:22:01.447Z,44.07
2022-12-13T07:24:25.087Z,49.47
2022-12-13T07:26:48.817Z,39.33
2022-12-13T07:29:12.597Z,45.97
2022-12-13T07:31:46.026Z,46.03
2022-12-13T07:34:15.474Z,47.47
2022-12-13T07:36:39.406Z,41.63
2022-12-13T07:39:02.988Z,48.17
2022-12-13T07:41:28.119Z,43.30
2022-12-13T07:43:55.087Z,45.57
2022-12-13T07:46:31.775Z,49.33
2022-12-13T07:49:01.780Z,45.30
2022-12-13T07:51:27.205Z,48.13
2022-12-13T07:53:50.890Z,44.77
2022-12-13T07:56:15.256Z,45.63
2022-12-13T07:58:39.146Z,51.10
2022-12-13T08:01:07.805Z,46.13
2022-12-13T08:03:31.912Z,44.70
2022-12-13T08:06:01.796Z,48.07
2022-12-13T08:08:30.873Z,43.17
2022-12-13T08:10:55.407Z,51.40
2022-12-13T08:13:25.189Z,43.80
2022-12-13T08:15:48.852Z,46.87
2022-12-13T08:18:13.078Z,44.17
2022-12-13T08:20:37.630Z,44.83
2022-12-13T08:23:02.874Z,46.40
2022-12-13T08:25:28.333Z,47.57
2022-12-13T08:27:51.990Z,48.97
2022-12-13T08:30:22.848Z,49.83
2022-12-13T08:32:47.425Z,48.60
2022-12-13T08:35:11.255Z,50.27
2022-12-13T08:37:34.963Z,47.20
2022-12-13T08:39:58.577Z,46.07
2022-12-13T08:42:25.014Z,45.60
2022-12-13T08:44:50.391Z,42.73
2022-12-13T08:47:23.817Z,49.80
2022-12-13T08:49:49.132Z,42.67
2022-12-13T08:52:12.749Z,45.43
2022-12-13T08:54:36.402Z,44.43
2022-12-13T08:57:00.032Z,46.90
2022-12-13T08:59:26.741Z,43.37
2022-12-13T09:01:53.612Z,43.80
2022-12-13T09:04:18.863Z,46.47
2022-12-13T09:06:55.528Z,44.00
2022-12-13T09:09:19.097Z,48.77
2022-12-13T09:11:42.961Z,47.23
2022-12-13T09:14:07.051Z,47.13
2022-12-13T09:16:39.184Z,40.93
2022-12-13T09:19:06.548Z,42.33
2022-12-13T09:21:46.583Z,43.47
2022-12-13T09:24:23.472Z,46.03
2022-12-13T09:26:48.530Z,41.00
2022-12-13T09:29:20.977Z,47.20
2022-12-13T09:31:51.132Z,45.83
2022-12-13T09:34:16.949Z,43.33
2022-12-13T09:36:40.592Z,46.23
2022-12-13T09:39:04.424Z,51.43
2022-12-13T09:41:34.237Z,49.10
2022-12-13T09:44:32.815Z,48.40
2022-12-13T09:47:01.085Z,43.10
2022-12-13T09:49:35.238Z,47.40
2022-12-13T09:52:10.902Z,43.60
2022-12-13T09:54:36.510Z,45.80
2022-12-13T09:57:00.390Z,47.77
2022-12-13T09:59:30.540Z,48.63
2022-12-13T10:01:55.946Z,44.53
2022-12-13T10:04:20.179Z,48.33
2022-12-13T10:06:44.022Z,46.77
2022-12-13T10:09:12.479Z,79.07
2022-12-13T10:11:36.146Z,52.43
2022-12-13T10:14:05.819Z,50.30
2022-12-13T10:16:37.945Z,48.40
2022-12-13T10:19:05.038Z,49.27
2022-12-13T10:21:35.659Z,58.60
2022-12-13T10:24:32.967Z,76.83
2022-12-13T10:26:56.099Z,48.70
2022-12-13T10:29:19.789Z,54.13
2022-12-13T10:31:46.206Z,48.93
2022-12-13T10:34:22.877Z,48.90
2022-12-13T10:36:46.565Z,42.10
2022-12-13T10:39:19.219Z,42.07
2022-12-13T10:41:42.918Z,42.37
2022-12-13T10:44:26.538Z,42.63
2022-12-13T10:47:07.890Z,40.43
2022-12-13T10:49:41.087Z,42.80
2022-12-13T10:52:05.535Z,39.30
2022-12-13T10:54:38.710Z,43.67
2022-12-13T10:57:13.446Z,39.63
2022-12-13T10:59:39.628Z,38.90
2022-12-13T11:02:04.575Z,45.33
2022-12-13T11:04:32.114Z,45.23
2022-12-13T11:06:59.115Z,43.60
2022-12-13T11:09:38.945Z,47.03
2022-12-13T11:12:12.923Z,44.37
2022-12-13T11:14:50.000Z,50.63
2022-12-13T11:17:19.921Z,43.87
2022-12-13T11:19:50.579Z,45.90
2022-12-13T11:22:25.579Z,44.93
2022-12-13T11:24:54.154Z,42.50
2022-12-13T11:27:39.942Z,44.00
2022-12-13T11:30:13.582Z,49.47
2022-12-13T11:33:02.593Z,46.20
2022-12-13T11:35:35.150Z,41.83
2022-12-13T11:38:17.331Z,33.27
2022-12-13T11:40:46.069Z,36.60
2022-12-13T11:43:21.574Z,36.50
2022-12-13T11:45:54.223Z,31.57
2022-12-13T11:48:25.483Z,35.27
2022-12-13T11:50:52.241Z,31.90
2022-12-13T11:53:28.412Z,33.93
2022-12-13T11:55:57.684Z,31.63
2022-12-13T12:01:19.016Z,35.10
2022-12-13T12:03:49.473Z,32.77
2022-12-13T12:06:21.431Z,33.60
2022-12-13T12:08:54.967Z,28.83
2022-12-13T12:11:27.955Z,28.37
2022-12-13T12:13:55.669Z,30.07
2022-12-13T12:16:32.264Z,30.57
2022-12-13T12:18:56.219Z,30.73
2022-12-13T12:22:12.303Z,33.10
2022-12-13T12:24:30.897Z,27.57
2022-12-13T12:27:22.075Z,27.70
2022-12-13T12:30:04.575Z,33.53
2022-12-13T12:32:38.144Z,30.37
2022-12-13T12:35:26.846Z,37.53
2022-12-13T12:37:58.229Z,31.17
2022-12-13T12:43:38.424Z,33.57
2022-12-13T12:46:25.141Z,29.67
2022-12-13T12:49:31.215Z,34.33
2022-12-13T12:52:03.197Z,33.40
2022-12-13T12:54:44.537Z,30.27
2022-12-13T12:57:18.968Z,34.40
2022-12-13T13:00:01.666Z,29.57
2022-12-13T13:02:34.226Z,33.47
2022-12-13T13:05:04.705Z,33.83
2022-12-13T13:07:39.786Z,29.93
2022-12-13T13:10:26.443Z,31.90
2022-12-13T13:12:51.094Z,35.17
2022-12-13T13:15:56.895Z,33.80
2022-12-13T13:18:47.077Z,18.00
2022-12-13T13:21:36.643Z,31.00
2022-12-13T13:24:25.521Z,35.07
2022-12-13T13:26:51.811Z,31.50
2022-12-13T13:29:43.643Z,32.73
2022-12-13T13:32:30.368Z,32.37
2022-12-13T13:35:00.830Z,39.33
2022-12-13T13:37:47.993Z,34.97
2022-12-13T13:40:32.276Z,35.40
2022-12-13T13:43:19.384Z,33.50
2022-12-13T13:46:11.636Z,32.70
2022-12-13T13:48:55.845Z,37.33
2022-12-13T13:52:24.316Z,39.40
2022-12-13T13:55:27.616Z,36.47
2022-12-13T13:58:36.869Z,34.60
2022-12-13T14:01:30.760Z,35.17
2022-12-13T14:04:48.883Z,40.33
2022-12-13T14:08:02.622Z,41.83
2022-12-13T14:10:51.760Z,42.27
2022-12-13T14:14:06.541Z,46.07
2022-12-13T14:17:32.799Z,42.17
2022-12-13T14:20:45.039Z,44.27
2022-12-13T14:23:21.583Z,45.03
2022-12-13T14:26:29.690Z,42.80
2022-12-13T14:28:57.763Z,43.73
2022-12-13T14:31:25.819Z,44.77
2022-12-13T14:33:53.597Z,41.13
2022-12-13T14:36:19.819Z,42.93
2022-12-13T14:38:43.542Z,44.07
2022-12-13T14:41:08.931Z,42.10
2022-12-13T14:43:35.495Z,41.97
2022-12-13T14:46:01.273Z,42.97
2022-12-13T14:48:28.917Z,43.27
2022-12-13T14:50:55.144Z,43.63
2022-12-13T14:53:27.759Z,59.93
2022-12-13T14:56:07.614Z,54.33
2022-12-13T14:58:31.396Z,45.63
2022-12-13T15:00:57.803Z,49.10
2022-12-13T15:03:25.408Z,52.83
2022-12-13T15:05:55.809Z,49.90
2022-12-13T15:08:21.183Z,54.80
2022-12-13T15:10:49.159Z,47.87
2022-12-13T15:13:29.188Z,42.40
2022-12-13T15:15:56.984Z,45.10
2022-12-13T15:18:26.557Z,39.73
2022-12-13T15:21:01.945Z,44.17
2022-12-13T15:23:41.724Z,44.63
2022-12-13T15:26:27.949Z,42.63
2022-12-13T15:28:58.110Z,46.07
2022-12-13T15:31:22.229Z,39.50
2022-12-13T15:33:48.601Z,40.77
2022-12-13T15:36:18.930Z,40.50
2022-12-13T15:39:01.662Z,40.87
2022-12-13T15:41:30.063Z,41.57
2022-12-13T15:43:56.367Z,47.00
2022-12-13T15:46:26.910Z,39.20
2022-12-13T15:48:52.086Z,39.80
2022-12-13T15:51:28.902Z,45.57
2022-12-13T15:54:08.346Z,40.13
2022-12-13T15:56:34.485Z,40.90
2022-12-13T15:58:58.257Z,40.60
2022-12-13T16:01:29.164Z,45.23
2022-12-13T16:03:53.225Z,44.47
2022-12-13T16:06:22.791Z,44.37
2022-12-13T16:08:49.516Z,42.63
2022-12-13T16:11:13.149Z,40.27
2022-12-13T16:13:39.960Z,47.80
2022-12-13T16:16:26.712Z,41.37
2022-12-13T16:18:56.828Z,44.07
2022-12-13T16:21:21.893Z,47.83
2022-12-13T16:23:48.829Z,42.20
2022-12-13T16:26:13.843Z,44.37
2022-12-13T16:28:37.880Z,44.87
2022-12-13T16:31:13.982Z,46.07
2022-12-13T16:33:37.906Z,48.77
2022-12-13T16:36:01.577Z,46.90
2022-12-13T16:38:27.505Z,53.33
2022-12-13T16:40:55.339Z,45.27
2022-12-13T16:43:20.741Z,52.23
2022-12-13T16:45:47.622Z,49.47
2022-12-13T16:48:12.214Z,47.13
2022-12-13T16:50:37.215Z,47.33
2022-12-13T16:53:01.120Z,48.00
2022-12-13T16:55:28.825Z,48.47
2022-12-13T16:58:00.822Z,47.00
2022-12-13T17:00:24.760Z,51.63
2022-12-13T17:02:48.548Z,45.57
2022-12-13T17:05:12.198Z,52.93
2022-12-13T17:07:36.594Z,47.30
2022-12-13T17:10:01.181Z,53.17
2022-12-13T17:12:27.553Z,53.13
2022-12-13T17:14:51.221Z,51.57
2022-12-13T17:17:17.716Z,52.73
2022-12-13T17:19:41.753Z,60.93
2022-12-13T17:22:05.364Z,52.23
2022-12-13T17:24:29.025Z,54.83
2022-12-13T17:26:54.809Z,55.90
2022-12-13T17:29:20.334Z,56.27
2022-12-13T17:31:44.791Z,56.67
2022-12-13T17:34:08.524Z,55.97
2022-12-13T17:36:32.353Z,52.50
2022-12-13T17:38:55.997Z,56.60
2022-12-13T17:41:19.660Z,52.90
2022-12-13T17:43:44.299Z,52.63
2022-12-13T17:46:13.439Z,59.50
2022-12-13T17:48:40.706Z,54.97
2022-12-13T17:51:05.521Z,57.20
2022-12-13T17:53:29.374Z,56.60
2022-12-13T17:55:57.953Z,60.30
2022-12-13T17:58:21.703Z,63.43
2022-12-13T18:00:45.266Z,63.67
2022-12-13T18:03:10.305Z,59.63
2022-12-13T18:05:36.886Z,60.60
2022-12-13T18:08:00.737Z,58.53
2022-12-13T18:10:29.502Z,60.87
2022-12-13T18:12:53.833Z,58.77
2022-12-13T18:15:17.488Z,58.03
2022-12-13T18:18:10.173Z,54.63
2022-12-13T18:20:26.347Z,56.93
2022-12-13T18:22:51.573Z,55.93
2022-12-13T18:25:15.509Z,60.50
2022-12-13T18:27:39.063Z,57.20
2022-12-13T18:30:03.005Z,59.33
2022-12-13T18:32:26.615Z,59.33
2022-12-13T18:34:50.286Z,60.00
2022-12-13T18:37:19.744Z,62.90
2022-12-13T18:39:43.967Z,63.30
2022-12-13T18:42:18.676Z,59.33
2022-12-13T18:44:42.264Z,60.83
2022-12-13T18:47:21.151Z,61.73
2022-12-13T18:49:54.603Z,60.73
2022-12-13T18:52:20.542Z,62.23
2022-12-13T18:54:46.030Z,56.67
2022-12-13T18:57:19.418Z,57.77
2022-12-13T18:59:43.648Z,66.70
2022-12-13T19:02:18.279Z,56.60
2022-12-13T19:04:43.066Z,59.60
2022-12-13T19:07:20.729Z,68.43
2022-12-13T19:09:44.346Z,81.63
2022-12-13T19:12:18.254Z,68.00
2022-12-13T19:14:41.943Z,61.70
2022-12-13T19:17:05.631Z,69.27
2022-12-13T19:19:29.363Z,59.17
2022-12-13T19:21:53.113Z,63.60
2022-12-13T19:24:18.289Z,58.87
2022-12-13T19:26:42.005Z,62.17
2022-12-13T19:29:05.745Z,59.77
2022-12-13T19:31:32.344Z,55.67
2022-12-13T19:33:58.002Z,61.53
2022-12-13T19:36:21.618Z,63.30
2022-12-13T19:38:46.174Z,59.87
2022-12-13T19:41:14.232Z,62.67
2022-12-13T19:43:38.170Z,59.67
2022-12-13T19:46:03.963Z,58.97
2022-12-13T19:48:27.595Z,57.83
2022-12-13T19:50:51.266Z,53.70
2022-12-13T19:53:14.906Z,61.03
2022-12-13T19:55:43.619Z,60.63
2022-12-13T19:58:08.619Z,66.63
2022-12-13T20:00:32.356Z,61.40
2022-12-13T20:02:56.116Z,67.23
2022-12-13T20:05:20.602Z,62.73
2022-12-13T20:07:44.474Z,62.87
2022-12-13T20:10:09.876Z,69.43
2022-12-13T20:12:37.197Z,72.07
2022-12-13T20:15:05.052Z,64.43
2022-12-13T20:17:28.690Z,64.27
2022-12-13T20:19:52.355Z,64.37
2022-12-13T20:22:16.866Z,64.60
2022-12-13T20:24:40.508Z,72.97
2022-12-13T20:27:04.181Z,71.73
2022-12-13T20:29:28.069Z,71.70
2022-12-13T20:31:54.290Z,72.43
2022-12-13T20:34:18.067Z,75.40
2022-12-13T20:36:42.798Z,73.13
2022-12-13T20:39:08.235Z,71.10
2022-12-13T20:41:34.436Z,73.40
2022-12-13T20:44:00.199Z,75.13
2022-12-13T20:46:24.925Z,75.03
2022-12-13T20:48:51.343Z,73.53
2022-12-13T20:51:17.231Z,71.77
2022-12-13T20:53:44.565Z,74.37
2022-12-13T20:56:11.974Z,67.20
2022-12-13T20:58:39.888Z,61.93
2022-12-13T21:01:05.499Z,59.27
2022-12-13T21:03:29.378Z,64.10
2022-12-13T21:05:54.599Z,59.50
2022-12-13T21:08:36.697Z,61.47
2022-12-13T21:11:20.500Z,58.87
2022-12-13T21:13:44.217Z,57.37
2022-12-13T21:16:14.609Z,48.63
2022-12-13T21:18:38.308Z,59.77
2022-12-13T21:21:03.344Z,57.90
2022-12-13T21:23:27.314Z,56.50
2022-12-13T21:25:53.471Z,56.93
2022-12-13T21:28:17.147Z,56.23
2022-12-13T21:30:40.743Z,56.13
2022-12-13T21:33:04.468Z,57.37
2022-12-13T21:35:28.111Z,54.77
2022-12-13T21:37:57.783Z,58.67
2022-12-13T21:40:29.291Z,68.90
2022-12-13T21:42:52.869Z,58.87
2022-12-13T21:45:16.684Z,58.60
2022-12-13T21:47:40.240Z,66.03
2022-12-13T21:50:04.179Z,66.03
2022-12-13T21:52:27.787Z,60.90
2022-12-13T21:55:03.500Z,62.73
2022-12-13T21:57:53.774Z,63.93
2022-12-13T22:00:18.064Z,58.40
2022-12-13T22:02:41.735Z,62.83
2022-12-13T22:05:06.249Z,60.83
2022-12-13T22:07:31.618Z,62.17
2022-12-13T22:09:57.686Z,58.53
2022-12-13T22:12:24.326Z,62.37
2022-12-13T22:14:48.600Z,63.83
2022-12-13T22:17:12.544Z,61.73
2022-12-13T22:19:36.205Z,62.80
2022-12-13T22:21:59.818Z,61.00
2022-12-13T22:24:23.484Z,55.43
2022-12-13T22:26:48.502Z,62.90
2022-12-13T22:29:14.128Z,60.93
2022-12-13T22:31:37.828Z,60.33
2022-12-13T22:34:01.586Z,56.60
2022-12-13T22:36:25.774Z,56.57
2022-12-13T22:38:50.823Z,54.93
2022-12-13T22:41:16.134Z,54.70
2022-12-13T22:43:41.642Z,61.27
2022-12-13T22:46:08.239Z,56.40
2022-12-13T22:48:32.496Z,60.90
2022-12-13T22:50:56.066Z,55.70
2022-12-13T22:53:20.083Z,56.57
2022-12-13T22:55:43.670Z,60.13
2022-12-13T22:58:10.420Z,54.50
2022-12-13T23:00:35.504Z,58.17
2022-12-13T23:02:59.301Z,63.47
2022-12-13T23:05:22.924Z,70.27
2022-12-13T23:07:48.582Z,69.07
2022-12-13T23:10:32.930Z,61.07
2022-12-13T23:13:04.269Z,63.07
2022-12-13T23:15:27.941Z,63.13
2022-12-13T23:17:52.929Z,61.83
2022-12-13T23:20:16.813Z,67.90
2022-12-13T23:22:40.476Z,61.73
2022-12-13T23:25:04.140Z,64.70
2022-12-13T23:27:27.822Z,62.17
2022-12-13T23:29:51.613Z,61.70
2022-12-13T23:32:15.469Z,56.43
2022-12-13T23:34:40.525Z,59.50
2022-12-13T23:37:04.155Z,68.73
2022-12-13T23:39:28.022Z,61.50
2022-12-13T23:41:52.075Z,62.10
2022-12-13T23:44:15.958Z,57.33
2022-12-13T23:46:39.965Z,58.07
2022-12-13T23:49:05.895Z,59.90
2022-12-13T23:51:31.120Z,58.50
2022-12-13T23:53:54.913Z,57.40
2022-12-13T23:56:18.935Z,56.37
2022-12-13T23:58:44.544Z,57.80
